createdAt,value
2023-03-14T00:00:33.922Z,0
2023-03-14T00:01:48.285Z,0
2023-03-14T00:03:02.639Z,0
2023-03-14T00:04:16.977Z,0
2023-03-14T00:05:31.347Z,0
2023-03-14T00:06:45.698Z,0
2023-03-14T00:08:00.055Z,0
2023-03-14T00:09:14.396Z,0
2023-03-14T00:10:28.753Z,0
2023-03-14T00:11:43.112Z,0
2023-03-14T00:12:57.470Z,0
2023-03-14T00:14:11.814Z,0
2023-03-14T00:15:26.175Z,0
2023-03-14T00:17:54.878Z,0
2023-03-14T00:19:09.238Z,0
2023-03-14T00:20:22.644Z,0
2023-03-14T00:22:51.359Z,0
2023-03-14T00:24:05.709Z,0
2023-03-14T00:25:20.068Z,0
2023-03-14T00:26:34.414Z,0
2023-03-14T00:27:48.768Z,0
2023-03-14T00:29:03.114Z,0
2023-03-14T00:30:17.468Z,0
2023-03-14T00:31:31.822Z,0
2023-03-14T00:32:46.194Z,0
2023-03-14T00:34:00.537Z,0
2023-03-14T00:35:14.900Z,0
2023-03-14T00:36:28.294Z,0
2023-03-14T00:37:42.648Z,0
2023-03-14T00:40:11.357Z,0
2023-03-14T00:41:25.713Z,0
2023-03-14T00:42:40.062Z,0
2023-03-14T00:45:08.784Z,0
2023-03-14T00:46:23.133Z,0
2023-03-14T00:48:51.838Z,0
2023-03-14T00:51:19.619Z,0
2023-03-14T00:52:33.013Z,0
2023-03-14T00:53:47.374Z,0
2023-03-14T00:55:01.738Z,0
2023-03-14T00:56:16.077Z,0
2023-03-14T00:57:30.437Z,0
2023-03-14T00:58:44.783Z,0
2023-03-14T00:59:59.142Z,0
2023-03-14T01:01:13.503Z,0
2023-03-14T01:03:42.205Z,0
2023-03-14T01:04:56.573Z,0
2023-03-14T01:07:25.280Z,0
2023-03-14T01:11:08.339Z,0
2023-03-14T01:14:51.398Z,0
2023-03-14T01:16:05.750Z,0
2023-03-14T01:18:34.455Z,0
2023-03-14T01:19:48.812Z,0
2023-03-14T01:21:03.176Z,0
2023-03-14T01:22:17.532Z,0
2023-03-14T01:23:31.876Z,0
2023-03-14T01:24:45.278Z,0
2023-03-14T01:25:59.642Z,0
2023-03-14T01:27:14.002Z,0
2023-03-14T01:28:28.354Z,0
2023-03-14T01:29:42.702Z,0
2023-03-14T01:30:57.049Z,0
2023-03-14T01:32:11.415Z,0
2023-03-14T01:33:25.771Z,0
2023-03-14T01:35:54.481Z,0
2023-03-14T01:37:08.825Z,0
2023-03-14T01:38:23.192Z,0
2023-03-14T01:39:37.530Z,0
2023-03-14T01:44:34.953Z,0
2023-03-14T01:45:49.319Z,0
2023-03-14T01:47:03.671Z,0
2023-03-14T01:48:18.028Z,0
2023-03-14T01:49:31.433Z,0
2023-03-14T01:52:00.142Z,0
2023-03-14T01:53:14.489Z,0
2023-03-14T01:54:28.851Z,0
2023-03-14T01:55:43.202Z,0
2023-03-14T01:56:57.556Z,0
2023-03-14T01:58:11.900Z,0
2023-03-14T01:59:26.260Z,0
2023-03-14T02:01:54.973Z,0
2023-03-14T02:03:09.330Z,0
2023-03-14T02:04:23.673Z,0
2023-03-14T02:05:37.087Z,0
2023-03-14T02:06:51.434Z,0
2023-03-14T02:09:20.143Z,0
2023-03-14T02:10:34.491Z,0
2023-03-14T02:11:48.855Z,0
2023-03-14T02:14:17.557Z,0
2023-03-14T02:15:31.907Z,0
2023-03-14T02:18:00.613Z,0
2023-03-14T02:19:14.969Z,0
2023-03-14T02:20:29.000Z,0
2023-03-14T02:21:43.697Z,0
2023-03-14T02:22:58.046Z,0
2023-03-14T02:24:12.403Z,0
2023-03-14T02:25:26.751Z,0
2023-03-14T02:26:40.156Z,0
2023-03-14T02:27:54.508Z,0
2023-03-14T02:29:08.870Z,0
2023-03-14T02:31:37.570Z,0
2023-03-14T02:32:51.923Z,0
2023-03-14T02:36:34.994Z,0
2023-03-14T02:37:49.345Z,0
2023-03-14T02:39:03.695Z,0
2023-03-14T02:40:18.049Z,0
2023-03-14T02:41:32.401Z,0
2023-03-14T02:42:46.768Z,0
2023-03-14T02:44:01.113Z,0
2023-03-14T02:45:14.513Z,0
2023-03-14T02:47:43.220Z,0
2023-03-14T02:48:57.580Z,0
2023-03-14T02:50:11.943Z,0
2023-03-14T02:51:26.283Z,0
2023-03-14T02:52:40.634Z,0
2023-03-14T02:53:55.000Z,0
2023-03-14T02:55:09.340Z,0
2023-03-14T02:57:38.062Z,0
2023-03-14T02:58:52.411Z,0
2023-03-14T03:00:06.768Z,0
2023-03-14T03:01:21.124Z,0
2023-03-14T03:03:49.943Z,0
2023-03-14T03:05:04.305Z,0
2023-03-14T03:06:18.672Z,0
2023-03-14T03:07:33.017Z,0
2023-03-14T03:11:16.067Z,0
2023-03-14T03:12:30.424Z,0
2023-03-14T03:14:59.137Z,0
2023-03-14T03:16:13.492Z,0
2023-03-14T03:17:27.847Z,0
2023-03-14T03:18:42.201Z,0
2023-03-14T03:19:56.565Z,0
2023-03-14T03:21:10.919Z,0
2023-03-14T03:22:25.000Z,0
2023-03-14T03:24:53.981Z,0
2023-03-14T03:26:07.387Z,0
2023-03-14T03:28:36.097Z,0
2023-03-14T03:29:50.439Z,0
2023-03-14T03:32:19.153Z,0
2023-03-14T03:33:33.504Z,0
2023-03-14T03:34:47.859Z,0
2023-03-14T03:36:02.208Z,0
2023-03-14T03:38:30.915Z,0
2023-03-14T03:39:45.281Z,0
2023-03-14T03:40:59.625Z,0
2023-03-14T03:42:13.982Z,0
2023-03-14T03:43:28.336Z,0
2023-03-14T03:44:42.691Z,0
2023-03-14T03:45:57.055Z,0
2023-03-14T03:47:11.403Z,0
2023-03-14T03:48:25.757Z,0
2023-03-14T03:49:39.158Z,0
2023-03-14T03:50:53.518Z,0
2023-03-14T03:52:07.873Z,0
2023-03-14T03:53:22.220Z,0
2023-03-14T03:54:36.553Z,0
2023-03-14T03:57:05.277Z,0
2023-03-14T03:58:19.642Z,0
2023-03-14T03:59:33.986Z,0
2023-03-14T04:00:48.355Z,0
2023-03-14T04:02:02.703Z,0
2023-03-14T04:03:17.059Z,0
2023-03-14T04:04:31.417Z,0
2023-03-14T04:05:45.779Z,0
2023-03-14T04:06:59.188Z,0
2023-03-14T04:08:13.553Z,0
2023-03-14T04:09:27.910Z,0
2023-03-14T04:10:41.312Z,0
2023-03-14T04:11:55.648Z,0
2023-03-14T04:13:10.014Z,0
2023-03-14T04:14:24.361Z,0
2023-03-14T04:15:38.729Z,0
2023-03-14T04:16:53.067Z,0
2023-03-14T04:18:07.428Z,0
2023-03-14T04:19:21.775Z,0
2023-03-14T04:20:36.134Z,0
2023-03-14T04:21:50.491Z,0
2023-03-14T04:23:03.921Z,0
2023-03-14T04:24:18.278Z,0
2023-03-14T04:25:32.750Z,0
2023-03-14T04:26:47.106Z,0
2023-03-14T04:28:01.448Z,0
2023-03-14T04:30:30.167Z,0
2023-03-14T04:31:44.523Z,0
2023-03-14T04:34:13.231Z,0
2023-03-14T04:35:27.569Z,0
2023-03-14T04:36:41.923Z,0
2023-03-14T04:39:10.650Z,0
2023-03-14T04:40:24.986Z,0
2023-03-14T04:41:39.489Z,0
2023-03-14T04:42:53.847Z,0
2023-03-14T04:45:21.608Z,0
2023-03-14T04:46:35.952Z,0
2023-03-14T04:47:50.317Z,0
2023-03-14T04:49:04.660Z,0
2023-03-14T04:51:33.376Z,0
2023-03-14T04:52:47.732Z,0
2023-03-14T04:54:02.000Z,0
2023-03-14T04:56:30.800Z,0
2023-03-14T04:57:45.138Z,0
2023-03-14T04:58:59.436Z,1
2023-03-14T05:00:13.810Z,0
2023-03-14T05:01:27.189Z,1
2023-03-14T05:02:41.501Z,1
2023-03-14T05:03:55.792Z,1
2023-03-14T05:08:52.994Z,2
2023-03-14T05:10:07.303Z,2
2023-03-14T05:11:21.601Z,9
2023-03-14T05:12:35.899Z,7
2023-03-14T05:13:50.197Z,9
2023-03-14T05:15:04.506Z,11
2023-03-14T05:16:18.803Z,9
2023-03-14T05:17:33.112Z,6
2023-03-14T05:18:46.463Z,6
2023-03-14T05:20:00.760Z,7
2023-03-14T05:21:15.047Z,20
2023-03-14T05:23:43.657Z,24
2023-03-14T05:24:57.948Z,23
2023-03-14T05:26:12.249Z,36
2023-03-14T05:27:26.557Z,35
2023-03-14T05:31:09.471Z,60
2023-03-14T05:32:23.753Z,78
2023-03-14T05:33:38.069Z,91
2023-03-14T05:34:52.361Z,94
2023-03-14T05:37:20.956Z,99
2023-03-14T05:41:03.880Z,107
2023-03-14T05:43:32.466Z,140
2023-03-14T05:44:46.755Z,158
2023-03-14T05:46:01.063Z,169
2023-03-14T05:47:14.415Z,184
2023-03-14T05:48:28.715Z,193
2023-03-14T05:49:43.007Z,173
2023-03-14T05:52:11.620Z,168
2023-03-14T05:53:25.907Z,200
2023-03-14T05:54:40.223Z,246
2023-03-14T05:55:54.515Z,284
2023-03-14T05:57:08.812Z,303
2023-03-14T05:58:23.123Z,318
2023-03-14T05:59:37.415Z,383
2023-03-14T06:00:51.721Z,436
2023-03-14T06:02:06.021Z,489
2023-03-14T06:03:19.369Z,526
2023-03-14T06:04:33.659Z,421
2023-03-14T06:05:47.969Z,452
2023-03-14T06:08:16.575Z,313
2023-03-14T06:09:30.860Z,323
2023-03-14T06:10:45.164Z,241
2023-03-14T06:11:59.469Z,251
2023-03-14T06:13:13.777Z,304
2023-03-14T06:14:28.061Z,502
2023-03-14T06:15:42.364Z,398
2023-03-14T06:16:56.670Z,523
2023-03-14T06:18:10.971Z,510
2023-03-14T06:19:25.263Z,727
2023-03-14T06:20:39.582Z,971
2023-03-14T06:23:08.168Z,1102
2023-03-14T06:24:22.469Z,1080
2023-03-14T06:26:51.081Z,881
2023-03-14T06:28:05.372Z,768
2023-03-14T06:29:19.671Z,749
2023-03-14T06:30:33.978Z,820
2023-03-14T06:34:16.878Z,929
2023-03-14T06:35:31.183Z,1157
2023-03-14T06:36:45.473Z,1010
2023-03-14T06:37:59.770Z,893
2023-03-14T06:41:42.683Z,771
2023-03-14T06:42:56.977Z,837
2023-03-14T06:45:25.586Z,1010
2023-03-14T06:46:38.939Z,1036
2023-03-14T06:47:53.236Z,978
2023-03-14T06:49:07.525Z,940
2023-03-14T06:50:21.839Z,921
2023-03-14T06:51:36.138Z,946
2023-03-14T06:52:50.424Z,980
2023-03-14T06:54:04.744Z,1032
2023-03-14T06:55:19.039Z,1033
2023-03-14T06:56:33.332Z,1017
2023-03-14T06:57:47.641Z,1070
2023-03-14T07:00:16.244Z,1256
2023-03-14T07:01:30.536Z,1334
2023-03-14T07:02:43.894Z,1363
2023-03-14T07:03:58.184Z,1349
2023-03-14T07:05:12.490Z,1364
2023-03-14T07:06:26.782Z,1359
2023-03-14T07:07:41.089Z,1420
2023-03-14T07:08:55.384Z,1453
2023-03-14T07:10:09.000Z,1492
2023-03-14T07:11:23.988Z,1563
2023-03-14T07:12:37.000Z,1663
2023-03-14T07:15:05.963Z,1789
2023-03-14T07:16:19.000Z,1818
2023-03-14T07:20:02.210Z,2166
2023-03-14T07:21:16.000Z,2299
2023-03-14T07:22:30.000Z,2370
2023-03-14T07:24:59.406Z,3128
2023-03-14T07:26:13.715Z,2943
2023-03-14T07:28:42.316Z,2482
2023-03-14T07:29:56.618Z,3107
2023-03-14T07:31:10.923Z,2954
2023-03-14T07:32:25.231Z,2872
2023-03-14T07:33:38.000Z,3067
2023-03-14T07:34:53.021Z,2873
2023-03-14T07:36:07.000Z,2655
2023-03-14T07:38:35.000Z,2341
2023-03-14T07:39:50.000Z,2228
2023-03-14T07:41:04.000Z,2287
2023-03-14T07:42:18.000Z,2690
2023-03-14T07:43:33.000Z,2817
2023-03-14T07:44:47.418Z,2900
2023-03-14T07:46:01.000Z,2599
2023-03-14T07:48:30.295Z,3328
2023-03-14T07:49:44.617Z,3596
2023-03-14T07:52:13.218Z,2764
2023-03-14T07:53:26.560Z,3172
2023-03-14T07:54:40.879Z,2447
2023-03-14T07:55:55.177Z,3775
2023-03-14T07:59:38.082Z,3163
2023-03-14T08:00:52.375Z,3720
2023-03-14T08:03:20.976Z,4876
2023-03-14T08:05:49.565Z,4487
2023-03-14T08:07:03.873Z,2536
2023-03-14T08:08:18.162Z,1934
2023-03-14T08:10:46.776Z,9838
2023-03-14T08:12:01.182Z,7094
2023-03-14T08:13:15.000Z,7487
2023-03-14T08:16:58.392Z,6971
2023-03-14T08:18:12.692Z,8831
2023-03-14T08:19:27.000Z,8401
2023-03-14T08:20:41.000Z,4116
2023-03-14T08:21:55.584Z,6293
2023-03-14T08:23:09.000Z,6505
2023-03-14T08:24:24.000Z,5715
2023-03-14T08:25:38.499Z,3258
2023-03-14T08:26:52.000Z,7683
2023-03-14T08:28:07.097Z,9568
2023-03-14T08:29:21.402Z,7029
2023-03-14T08:31:49.989Z,6657
2023-03-14T08:33:04.285Z,3704
2023-03-14T08:34:18.594Z,4790
2023-03-14T08:35:32.892Z,3634
2023-03-14T08:36:47.194Z,3587
2023-03-14T08:38:00.546Z,4433
2023-03-14T08:39:14.850Z,3458
2023-03-14T08:40:29.142Z,5823
2023-03-14T08:42:57.740Z,2291
2023-03-14T08:44:12.048Z,1260
2023-03-14T08:45:26.348Z,1845
2023-03-14T08:46:40.640Z,1885
2023-03-14T08:50:23.531Z,4360
2023-03-14T08:51:37.846Z,4591
2023-03-14T08:52:52.144Z,3530
2023-03-14T08:56:35.033Z,2945
2023-03-14T08:59:03.632Z,3132
2023-03-14T09:01:32.241Z,3344
2023-03-14T09:02:46.673Z,2901
2023-03-14T09:04:00.956Z,2215
2023-03-14T09:06:29.556Z,3112
2023-03-14T09:07:43.857Z,2654
2023-03-14T09:08:58.171Z,2888
2023-03-14T09:10:12.456Z,3838
2023-03-14T09:11:26.759Z,4337
2023-03-14T09:12:41.053Z,4069
2023-03-14T09:13:55.357Z,3410
2023-03-14T09:15:08.726Z,2285
2023-03-14T09:16:23.024Z,2037
2023-03-14T09:17:37.312Z,2149
2023-03-14T09:20:05.922Z,3627
2023-03-14T09:22:34.526Z,3602
2023-03-14T09:23:48.826Z,3877
2023-03-14T09:25:03.112Z,4029
2023-03-14T09:26:17.422Z,3928
2023-03-14T09:27:31.000Z,3085
2023-03-14T09:30:00.318Z,3183
2023-03-14T09:31:14.622Z,3968
2023-03-14T09:34:57.518Z,2789
2023-03-14T09:36:11.815Z,2919
2023-03-14T09:37:26.117Z,3024
2023-03-14T09:38:40.429Z,3500
2023-03-14T09:39:54.723Z,3804
2023-03-14T09:41:08.066Z,4247
2023-03-14T09:42:22.375Z,6278
2023-03-14T09:43:36.679Z,4132
2023-03-14T09:44:50.974Z,3840
2023-03-14T09:46:05.266Z,3605
2023-03-14T09:47:19.579Z,2737
2023-03-14T09:48:33.869Z,2832
2023-03-14T09:51:02.471Z,2801
2023-03-14T09:52:16.767Z,3457
2023-03-14T09:53:31.064Z,3505
2023-03-14T09:54:45.364Z,3535
2023-03-14T09:57:13.981Z,2835
2023-03-14T09:58:28.000Z,2689
2023-03-14T09:59:42.582Z,2569
2023-03-14T10:02:11.173Z,2806
2023-03-14T10:03:24.528Z,3593
2023-03-14T10:04:38.819Z,3613
2023-03-14T10:05:53.120Z,3444
2023-03-14T10:07:07.429Z,2833
2023-03-14T10:08:21.713Z,2403
2023-03-14T10:10:50.325Z,2952
2023-03-14T10:12:04.625Z,3498
2023-03-14T10:13:18.931Z,2781
2023-03-14T10:14:33.230Z,2795
2023-03-14T10:15:47.523Z,2177
2023-03-14T10:17:01.830Z,2450
2023-03-14T10:19:30.420Z,2213
2023-03-14T10:20:43.770Z,2082
2023-03-14T10:21:58.074Z,1718
2023-03-14T10:24:26.672Z,1737
2023-03-14T10:25:40.975Z,1977
2023-03-14T10:29:23.870Z,3477
2023-03-14T10:30:38.173Z,2804
2023-03-14T10:31:52.483Z,2995
2023-03-14T10:35:35.367Z,2020
2023-03-14T10:36:49.678Z,2939
2023-03-14T10:39:17.315Z,2044
2023-03-14T10:41:45.927Z,1270
2023-03-14T10:43:00.230Z,1925
2023-03-14T10:44:14.514Z,1614
2023-03-14T10:45:28.825Z,2048
2023-03-14T10:46:43.112Z,1739
2023-03-14T10:47:57.419Z,2006
2023-03-14T10:49:11.715Z,1644
2023-03-14T10:52:54.623Z,1462
2023-03-14T10:54:08.912Z,1797
2023-03-14T10:55:23.219Z,2236
2023-03-14T10:57:50.861Z,2938
2023-03-14T10:59:05.161Z,3031
2023-03-14T11:00:19.480Z,3007
2023-03-14T11:01:33.776Z,2878
2023-03-14T11:02:48.081Z,3087
2023-03-14T11:06:30.960Z,2822
2023-03-14T11:08:59.562Z,3347
2023-03-14T11:10:13.866Z,3577
2023-03-14T11:11:28.176Z,4087
2023-03-14T11:12:42.480Z,4112
2023-03-14T11:15:11.080Z,4905
2023-03-14T11:16:25.366Z,5777
2023-03-14T11:17:38.709Z,5275
2023-03-14T11:18:53.013Z,5058
2023-03-14T11:20:07.320Z,5151
2023-03-14T11:21:21.628Z,4650
2023-03-14T11:22:35.923Z,3699
2023-03-14T11:23:50.220Z,2847
2023-03-14T11:26:18.823Z,2129
2023-03-14T11:28:47.409Z,1754
2023-03-14T11:31:16.000Z,2666
2023-03-14T11:32:30.328Z,2743
2023-03-14T11:33:44.000Z,3287
2023-03-14T11:34:58.920Z,3003
2023-03-14T11:36:13.221Z,3679
2023-03-14T11:37:27.513Z,4217
2023-03-14T11:38:41.815Z,4120
2023-03-14T11:39:56.118Z,3298
2023-03-14T11:42:24.716Z,3098
2023-03-14T11:43:39.013Z,3960
2023-03-14T11:44:53.312Z,4968
2023-03-14T11:46:07.629Z,4977
2023-03-14T11:47:21.930Z,4137
2023-03-14T11:48:36.215Z,3318
2023-03-14T11:49:50.518Z,3355
2023-03-14T11:51:03.859Z,3640
2023-03-14T11:53:32.459Z,4638
2023-03-14T11:54:46.768Z,3946
2023-03-14T11:56:01.078Z,4940
2023-03-14T11:57:15.361Z,5272
2023-03-14T11:58:29.663Z,4912
2023-03-14T12:00:58.275Z,2969
2023-03-14T12:02:12.578Z,3590
2023-03-14T12:04:41.177Z,5066
2023-03-14T12:05:55.465Z,4303
2023-03-14T12:07:08.808Z,4757
2023-03-14T12:10:51.706Z,4949
2023-03-14T12:12:06.012Z,4112
2023-03-14T12:13:20.319Z,3291
2023-03-14T12:15:48.917Z,4636
2023-03-14T12:17:03.212Z,4441
2023-03-14T12:18:17.512Z,4385
2023-03-14T12:19:31.808Z,4176
2023-03-14T12:20:46.119Z,4901
2023-03-14T12:22:00.426Z,4825
2023-03-14T12:23:14.712Z,4979
2023-03-14T12:24:28.071Z,4574
2023-03-14T12:25:42.359Z,4230
2023-03-14T12:26:56.654Z,3949
2023-03-14T12:29:25.263Z,4359
2023-03-14T12:30:39.563Z,4159
2023-03-14T12:31:53.872Z,4188
2023-03-14T12:33:08.165Z,4530
2023-03-14T12:34:22.467Z,4211
2023-03-14T12:35:36.755Z,4489
2023-03-14T12:36:51.053Z,4838
2023-03-14T12:38:05.364Z,4153
2023-03-14T12:39:19.670Z,3743
2023-03-14T12:40:33.958Z,3799
2023-03-14T12:41:48.260Z,3943
2023-03-14T12:44:16.863Z,3937
2023-03-14T12:45:31.157Z,3289
2023-03-14T12:46:45.454Z,2787
2023-03-14T12:47:59.763Z,2839
2023-03-14T12:49:13.118Z,1968
2023-03-14T12:50:27.404Z,2491
2023-03-14T12:51:41.702Z,2007
2023-03-14T12:52:56.007Z,3141
2023-03-14T12:56:38.904Z,3814
2023-03-14T12:57:53.214Z,3107
2023-03-14T13:00:21.805Z,4330
2023-03-14T13:01:36.107Z,3593
2023-03-14T13:02:50.405Z,3254
2023-03-14T13:04:04.710Z,3038
2023-03-14T13:06:33.319Z,2814
2023-03-14T13:09:01.919Z,3288
2023-03-14T13:13:59.114Z,3675
2023-03-14T13:15:13.407Z,3515
2023-03-14T13:17:42.023Z,3356
2023-03-14T13:18:56.314Z,2937
2023-03-14T13:20:09.661Z,2878
2023-03-14T13:22:38.252Z,2526
2023-03-14T13:23:51.608Z,3591
2023-03-14T13:25:05.914Z,2880
2023-03-14T13:26:20.000Z,3349
2023-03-14T13:27:34.514Z,3302
2023-03-14T13:28:48.823Z,3124
2023-03-14T13:30:03.123Z,3935
2023-03-14T13:31:17.409Z,3905
2023-03-14T13:32:31.715Z,4024
2023-03-14T13:36:14.613Z,3850
2023-03-14T13:37:28.912Z,2803
2023-03-14T13:39:57.516Z,3289
2023-03-14T13:41:11.815Z,2998
2023-03-14T13:42:26.109Z,2922
2023-03-14T13:43:40.426Z,2210
2023-03-14T13:44:54.715Z,981
2023-03-14T13:46:09.011Z,566
2023-03-14T13:47:23.317Z,1230
2023-03-14T13:48:37.619Z,4008
2023-03-14T13:49:51.911Z,4381
2023-03-14T13:51:06.228Z,4095
2023-03-14T13:52:20.000Z,3518
2023-03-14T13:53:33.876Z,3067
2023-03-14T13:54:48.175Z,2490
2023-03-14T13:56:02.459Z,2508
2023-03-14T13:57:16.763Z,3175
2023-03-14T13:58:31.057Z,2455
2023-03-14T14:02:13.959Z,2691
2023-03-14T14:03:28.261Z,1907
2023-03-14T14:04:42.570Z,1143
2023-03-14T14:05:56.000Z,1109
2023-03-14T14:07:11.159Z,733
2023-03-14T14:09:39.761Z,1761
2023-03-14T14:10:54.065Z,3784
2023-03-14T14:12:07.406Z,3755
2023-03-14T14:13:21.710Z,3134
2023-03-14T14:14:36.025Z,2467
2023-03-14T14:17:04.620Z,3353
2023-03-14T14:18:18.913Z,3204
2023-03-14T14:19:33.211Z,2664
2023-03-14T14:20:47.525Z,2218
2023-03-14T14:22:01.814Z,2068
2023-03-14T14:23:16.121Z,2172
2023-03-14T14:24:30.409Z,2227
2023-03-14T14:25:44.715Z,2288
2023-03-14T14:26:59.006Z,2427
2023-03-14T14:29:27.625Z,2555
2023-03-14T14:30:41.926Z,2449
2023-03-14T14:31:56.225Z,2381
2023-03-14T14:33:10.526Z,2338
2023-03-14T14:35:39.121Z,2655
2023-03-14T14:36:53.420Z,2661
2023-03-14T14:38:07.726Z,2633
2023-03-14T14:39:22.024Z,2441
2023-03-14T14:40:36.318Z,2249
2023-03-14T14:41:50.613Z,2169
2023-03-14T14:43:04.918Z,1992
2023-03-14T14:44:19.000Z,1914
2023-03-14T14:46:47.816Z,2027
2023-03-14T14:48:02.126Z,2005
2023-03-14T14:49:16.412Z,1910
2023-03-14T14:51:45.017Z,1966
2023-03-14T14:52:59.317Z,1802
2023-03-14T14:54:13.611Z,1684
2023-03-14T14:55:27.925Z,1555
2023-03-14T14:56:42.228Z,1535
2023-03-14T14:57:56.626Z,1541
2023-03-14T14:59:11.000Z,1562
2023-03-14T15:00:25.452Z,1295
2023-03-14T15:01:39.007Z,1145
2023-03-14T15:02:53.416Z,1058
2023-03-14T15:04:07.823Z,1189
2023-03-14T15:06:36.639Z,1122
2023-03-14T15:07:51.067Z,1231
2023-03-14T15:09:05.000Z,906
2023-03-14T15:10:19.880Z,833
2023-03-14T15:11:34.297Z,611
2023-03-14T15:12:48.721Z,546
2023-03-14T15:14:03.000Z,487
2023-03-14T15:15:17.000Z,590
2023-03-14T15:16:31.965Z,484
2023-03-14T15:17:46.366Z,472
2023-03-14T15:20:14.315Z,407
2023-03-14T15:21:28.000Z,376
2023-03-14T15:22:43.155Z,319
2023-03-14T15:23:57.559Z,307
2023-03-14T15:26:26.395Z,179
2023-03-14T15:27:40.803Z,103
2023-03-14T15:28:55.221Z,89
2023-03-14T15:30:09.000Z,124
2023-03-14T15:32:38.450Z,71
2023-03-14T15:33:52.872Z,170
2023-03-14T15:36:21.683Z,231
2023-03-14T15:37:36.000Z,213
2023-03-14T15:38:50.511Z,181
2023-03-14T15:40:04.000Z,192
2023-03-14T15:41:18.468Z,234
2023-03-14T15:42:32.871Z,107
2023-03-14T15:43:47.289Z,254
2023-03-14T15:47:30.523Z,204
2023-03-14T15:48:44.938Z,224
2023-03-14T15:49:59.349Z,215
2023-03-14T15:51:13.769Z,217
2023-03-14T15:52:28.182Z,245
2023-03-14T15:53:42.589Z,213
2023-03-14T15:54:57.003Z,295
2023-03-14T15:56:11.417Z,244
2023-03-14T15:57:24.967Z,228
2023-03-14T15:58:39.000Z,218
2023-03-14T15:59:53.791Z,219
2023-03-14T16:01:08.192Z,192
2023-03-14T16:02:22.000Z,201
2023-03-14T16:03:37.035Z,140
2023-03-14T16:04:51.443Z,210
2023-03-14T16:06:05.000Z,171
2023-03-14T16:07:20.261Z,160
2023-03-14T16:11:03.510Z,223
2023-03-14T16:12:17.928Z,224
2023-03-14T16:13:32.334Z,178
2023-03-14T16:14:46.866Z,205
2023-03-14T16:16:01.286Z,224
2023-03-14T16:17:15.701Z,149
2023-03-14T16:18:30.102Z,222
2023-03-14T16:19:44.531Z,129
2023-03-14T16:20:58.937Z,182
2023-03-14T16:22:13.352Z,133
2023-03-14T16:23:27.000Z,169
2023-03-14T16:24:42.000Z,133
2023-03-14T16:25:56.592Z,154
2023-03-14T16:27:11.000Z,138
2023-03-14T16:28:25.411Z,189
2023-03-14T16:30:54.000Z,113
2023-03-14T16:32:07.000Z,91
2023-03-14T16:33:22.000Z,87
2023-03-14T16:35:51.032Z,104
2023-03-14T16:37:05.443Z,100
2023-03-14T16:38:19.850Z,54
2023-03-14T16:39:34.271Z,106
2023-03-14T16:40:48.679Z,109
2023-03-14T16:43:17.512Z,106
2023-03-14T16:45:46.326Z,117
2023-03-14T16:47:00.739Z,95
2023-03-14T16:48:15.149Z,82
2023-03-14T16:50:43.982Z,82
2023-03-14T16:51:58.391Z,76
2023-03-14T16:53:12.806Z,63
2023-03-14T16:55:41.762Z,58
2023-03-14T16:56:56.185Z,47
2023-03-14T16:58:10.594Z,42
2023-03-14T17:00:39.000Z,29
2023-03-14T17:01:53.831Z,36
2023-03-14T17:03:08.213Z,41
2023-03-14T17:04:22.000Z,37
2023-03-14T17:05:37.000Z,34
2023-03-14T17:06:51.000Z,31
2023-03-14T17:10:34.728Z,9
2023-03-14T17:13:03.000Z,18
2023-03-14T17:14:17.000Z,25
2023-03-14T17:15:32.377Z,21
2023-03-14T17:16:46.000Z,22
2023-03-14T17:18:01.197Z,14
2023-03-14T17:19:15.609Z,15
2023-03-14T17:20:30.026Z,12
2023-03-14T17:21:43.000Z,16
2023-03-14T17:22:57.990Z,9
2023-03-14T17:24:12.000Z,11
2023-03-14T17:25:26.815Z,8
2023-03-14T17:26:41.226Z,5
2023-03-14T17:29:10.000Z,5
2023-03-14T17:30:24.461Z,2
2023-03-14T17:31:38.882Z,1
2023-03-14T17:32:53.339Z,0
2023-03-14T17:34:07.000Z,0
2023-03-14T17:35:21.354Z,1
2023-03-14T17:36:35.000Z,1
2023-03-14T17:37:50.176Z,1
2023-03-14T17:39:04.000Z,0
2023-03-14T17:40:19.000Z,0
2023-03-14T17:41:33.000Z,0
2023-03-14T17:42:48.000Z,0
2023-03-14T17:45:16.000Z,0
2023-03-14T17:46:31.000Z,0
2023-03-14T17:47:45.930Z,0
2023-03-14T17:49:00.000Z,0
2023-03-14T17:50:14.000Z,0
2023-03-14T17:51:28.000Z,0
2023-03-14T17:52:42.000Z,0
2023-03-14T17:53:57.000Z,0
2023-03-14T17:55:10.000Z,0
2023-03-14T17:56:24.000Z,0
2023-03-14T17:57:39.000Z,0
2023-03-14T17:58:53.000Z,0
2023-03-14T18:00:07.000Z,0
2023-03-14T18:01:22.000Z,0
2023-03-14T18:02:36.000Z,0
2023-03-14T18:03:51.000Z,0
2023-03-14T18:05:05.850Z,0
2023-03-14T18:06:20.000Z,0
2023-03-14T18:07:34.000Z,0
2023-03-14T18:08:49.000Z,0
2023-03-14T18:10:02.858Z,0
2023-03-14T18:11:16.000Z,0
2023-03-14T18:12:30.000Z,0
2023-03-14T18:13:45.000Z,0
2023-03-14T18:14:59.000Z,0
2023-03-14T18:16:14.000Z,0
2023-03-14T18:17:28.000Z,0
2023-03-14T18:18:43.261Z,0
2023-03-14T18:19:57.000Z,0
2023-03-14T18:21:12.000Z,0
2023-03-14T18:22:26.000Z,0
2023-03-14T18:23:41.000Z,0
2023-03-14T18:24:55.569Z,0
2023-03-14T18:26:10.000Z,0
2023-03-14T18:27:23.000Z,0
2023-03-14T18:28:38.000Z,0
2023-03-14T18:29:52.000Z,0
2023-03-14T18:31:07.000Z,0
2023-03-14T18:32:21.000Z,0
2023-03-14T18:33:35.000Z,0
2023-03-14T18:34:50.463Z,0
2023-03-14T18:36:04.924Z,0
2023-03-14T18:37:19.000Z,0
2023-03-14T18:38:33.000Z,0
2023-03-14T18:41:02.000Z,0
2023-03-14T18:42:16.000Z,0
2023-03-14T18:43:30.000Z,0
2023-03-14T18:44:45.000Z,0
2023-03-14T18:45:58.000Z,0
2023-03-14T18:47:13.000Z,0
2023-03-14T18:48:27.000Z,0
2023-03-14T18:49:42.000Z,0
2023-03-14T18:50:56.000Z,0
2023-03-14T18:52:11.000Z,0
2023-03-14T18:53:25.000Z,0
2023-03-14T18:54:40.000Z,0
2023-03-14T18:55:54.000Z,0
2023-03-14T18:57:09.000Z,0
2023-03-14T18:58:23.616Z,0
2023-03-14T18:59:38.000Z,0
2023-03-14T19:00:52.000Z,0
2023-03-14T19:02:06.126Z,0
2023-03-14T19:03:20.611Z,0
2023-03-14T19:04:35.060Z,0
2023-03-14T19:05:49.000Z,0
2023-03-14T19:07:04.009Z,0
2023-03-14T19:08:18.000Z,0
2023-03-14T19:09:32.000Z,0
2023-03-14T19:10:47.000Z,0
2023-03-14T19:12:01.000Z,0
2023-03-14T19:13:16.000Z,0
2023-03-14T19:14:30.810Z,0
2023-03-14T19:15:45.271Z,0
2023-03-14T19:16:59.000Z,0
2023-03-14T19:18:13.000Z,0
2023-03-14T19:19:27.000Z,0
2023-03-14T19:20:42.000Z,0
2023-03-14T19:21:56.000Z,0
2023-03-14T19:23:11.210Z,0
2023-03-14T19:24:25.674Z,0
2023-03-14T19:25:40.000Z,0
2023-03-14T19:26:54.000Z,0
2023-03-14T19:28:09.000Z,0
2023-03-14T19:30:38.007Z,0
2023-03-14T19:31:52.000Z,0
2023-03-14T19:33:06.000Z,0
2023-03-14T19:34:20.000Z,0
2023-03-14T19:35:34.000Z,0
2023-03-14T19:36:49.479Z,0
2023-03-14T19:38:03.000Z,0
2023-03-14T19:39:18.413Z,0
2023-03-14T19:40:32.000Z,0
2023-03-14T19:41:47.000Z,0
2023-03-14T19:43:01.000Z,0
2023-03-14T19:44:16.000Z,0
2023-03-14T19:45:30.000Z,0
2023-03-14T19:46:45.216Z,0
2023-03-14T19:47:59.000Z,0
2023-03-14T19:49:14.000Z,0
2023-03-14T19:50:27.738Z,0
2023-03-14T19:51:41.000Z,0
2023-03-14T19:52:55.000Z,0
2023-03-14T19:54:09.000Z,0
2023-03-14T19:55:23.874Z,0
2023-03-14T19:57:52.797Z,0
2023-03-14T19:59:07.277Z,0
2023-03-14T20:01:36.000Z,0
2023-03-14T20:02:50.664Z,0
2023-03-14T20:04:05.146Z,0
2023-03-14T20:05:19.619Z,0
2023-03-14T20:06:34.000Z,0
2023-03-14T20:07:48.000Z,0
2023-03-14T20:09:02.153Z,0
2023-03-14T20:10:15.000Z,0
2023-03-14T20:11:30.000Z,0
2023-03-14T20:12:44.000Z,0
2023-03-14T20:13:59.000Z,0
2023-03-14T20:15:13.606Z,0
2023-03-14T20:16:28.049Z,0
2023-03-14T20:17:42.545Z,0
2023-03-14T20:18:57.018Z,0
2023-03-14T20:20:11.482Z,0
2023-03-14T20:21:25.000Z,0
2023-03-14T20:22:40.420Z,0
2023-03-14T20:23:54.027Z,0
2023-03-14T20:25:07.000Z,0
2023-03-14T20:26:22.096Z,0
2023-03-14T20:27:36.000Z,0
2023-03-14T20:28:51.000Z,0
2023-03-14T20:30:04.639Z,0
2023-03-14T20:31:19.188Z,0
2023-03-14T20:32:33.000Z,0
2023-03-14T20:33:48.162Z,0
2023-03-14T20:35:02.000Z,0
2023-03-14T20:36:17.085Z,0
2023-03-14T20:37:31.000Z,0
2023-03-14T20:38:46.000Z,0
2023-03-14T20:40:00.496Z,0
2023-03-14T20:42:29.430Z,0
2023-03-14T20:43:43.891Z,0
2023-03-14T20:46:12.825Z,0
2023-03-14T20:47:27.000Z,0
2023-03-14T20:48:41.000Z,0
2023-03-14T20:49:55.000Z,0
2023-03-14T20:51:09.000Z,0
2023-03-14T20:52:24.000Z,0
2023-03-14T20:53:38.902Z,0